sensor_id;sensor_type;location;lat;lon;timestamp;temperature;humidity
1405;DHT22;697;51.114;6.542;2023-07-29T00:01:44;21.60;99.90
1405;DHT22;697;51.114;6.542;2023-07-29T00:04:11;21.60;99.90
1405;DHT22;697;51.114;6.542;2023-07-29T00:06:38;21.60;99.90
1405;DHT22;697;51.114;6.542;2023-07-29T00:09:05;21.60;99.90
1405;DHT22;697;51.114;6.542;2023-07-29T00:11:32;21.60;99.90
1405;DHT22;697;51.114;6.542;2023-07-29T00:14:00;21.60;99.90
1405;DHT22;697;51.114;6.542;2023-07-29T00:16:27;21.60;99.90
1405;DHT22;697;51.114;6.542;2023-07-29T00:18:54;21.50;99.90
1405;DHT22;697;51.114;6.542;2023-07-29T00:21:21;21.50;99.90
1405;DHT22;697;51.114;6.542;2023-07-29T00:23:48;21.50;99.90
1405;DHT22;697;51.114;6.542;2023-07-29T00:26:14;21.40;99.90
1405;DHT22;697;51.114;6.542;2023-07-29T00:28:41;21.40;99.90
1405;DHT22;697;51.114;6.542;2023-07-29T00:31:09;21.40;99.90
1405;DHT22;697;51.114;6.542;2023-07-29T00:33:36;21.40;99.90
1405;DHT22;697;51.114;6.542;2023-07-29T00:36:03;21.40;99.90
1405;DHT22;697;51.114;6.542;2023-07-29T00:38:30;21.30;99.90
1405;DHT22;697;51.114;6.542;2023-07-29T00:40:57;21.30;99.90
1405;DHT22;697;51.114;6.542;2023-07-29T00:43:24;21.30;99.90
1405;DHT22;697;51.114;6.542;2023-07-29T00:45:51;21.30;99.90
1405;DHT22;697;51.114;6.542;2023-07-29T00:48:20;21.30;99.90
1405;DHT22;697;51.114;6.542;2023-07-29T00:50:47;21.20;99.90
1405;DHT22;697;51.114;6.542;2023-07-29T00:53:14;21.20;99.90
1405;DHT22;697;51.114;6.542;2023-07-29T00:55:41;21.20;99.90
1405;DHT22;697;51.114;6.542;2023-07-29T00:58:07;21.10;99.90
1405;DHT22;697;51.114;6.542;2023-07-29T01:00:34;21.10;99.90
1405;DHT22;697;51.114;6.542;2023-07-29T01:03:01;21.10;99.90
1405;DHT22;697;51.114;6.542;2023-07-29T01:05:36;21.20;99.90
1405;DHT22;697;51.114;6.542;2023-07-29T01:08:11;21.20;99.90
1405;DHT22;697;51.114;6.542;2023-07-29T01:10:44;21.10;99.90
1405;DHT22;697;51.114;6.542;2023-07-29T01:13:18;21.20;99.90
1405;DHT22;697;51.114;6.542;2023-07-29T01:15:50;21.20;99.90
1405;DHT22;697;51.114;6.542;2023-07-29T01:18:23;21.20;99.90
1405;DHT22;697;51.114;6.542;2023-07-29T01:20:53;21.10;99.90
1405;DHT22;697;51.114;6.542;2023-07-29T01:23:24;21.20;99.90
1405;DHT22;697;51.114;6.542;2023-07-29T01:25:51;21.10;99.90
1405;DHT22;697;51.114;6.542;2023-07-29T01:28:18;21.10;99.90
1405;DHT22;697;51.114;6.542;2023-07-29T01:30:45;21.10;99.90
1405;DHT22;697;51.114;6.542;2023-07-29T01:33:18;21.10;99.90
1405;DHT22;697;51.114;6.542;2023-07-29T01:35:48;21.10;99.90
1405;DHT22;697;51.114;6.542;2023-07-29T01:38:18;21.10;99.90
1405;DHT22;697;51.114;6.542;2023-07-29T01:40:48;21.10;99.90
1405;DHT22;697;51.114;6.542;2023-07-29T01:43:15;21.10;99.90
1405;DHT22;697;51.114;6.542;2023-07-29T01:45:44;21.10;99.90
1405;DHT22;697;51.114;6.542;2023-07-29T01:48:11;21.10;99.90
1405;DHT22;697;51.114;6.542;2023-07-29T01:50:38;21.10;99.90
1405;DHT22;697;51.114;6.542;2023-07-29T01:53:05;21.20;99.90
1405;DHT22;697;51.114;6.542;2023-07-29T01:55:31;21.10;99.90
1405;DHT22;697;51.114;6.542;2023-07-29T01:58:00;21.10;99.90
1405;DHT22;697;51.114;6.542;2023-07-29T02:00:26;21.10;99.90
1405;DHT22;697;51.114;6.542;2023-07-29T02:02:53;21.10;99.90
1405;DHT22;697;51.114;6.542;2023-07-29T02:05:20;21.10;99.90
1405;DHT22;697;51.114;6.542;2023-07-29T02:07:46;21.10;99.90
1405;DHT22;697;51.114;6.542;2023-07-29T02:10:13;21.10;99.90
1405;DHT22;697;51.114;6.542;2023-07-29T02:12:40;21.10;99.90
1405;DHT22;697;51.114;6.542;2023-07-29T02:15:09;21.10;99.90
1405;DHT22;697;51.114;6.542;2023-07-29T02:17:37;21.10;99.90
1405;DHT22;697;51.114;6.542;2023-07-29T02:20:04;21.00;99.90
1405;DHT22;697;51.114;6.542;2023-07-29T02:22:31;21.00;99.90
1405;DHT22;697;51.114;6.542;2023-07-29T02:24:58;21.10;99.90
1405;DHT22;697;51.114;6.542;2023-07-29T02:27:25;21.10;99.90
1405;DHT22;697;51.114;6.542;2023-07-29T02:29:52;21.10;99.90
1405;DHT22;697;51.114;6.542;2023-07-29T02:32:21;21.10;99.90
1405;DHT22;697;51.114;6.542;2023-07-29T02:34:48;21.10;99.90
1405;DHT22;697;51.114;6.542;2023-07-29T02:37:15;21.10;99.90
1405;DHT22;697;51.114;6.542;2023-07-29T02:39:42;21.10;99.90
1405;DHT22;697;51.114;6.542;2023-07-29T02:42:09;21.00;99.90
1405;DHT22;697;51.114;6.542;2023-07-29T02:44:35;21.00;99.90
1405;DHT22;697;51.114;6.542;2023-07-29T02:47:02;21.00;99.90
1405;DHT22;697;51.114;6.542;2023-07-29T02:49:30;21.00;99.90
1405;DHT22;697;51.114;6.542;2023-07-29T02:51:57;20.90;99.90
1405;DHT22;697;51.114;6.542;2023-07-29T02:54:24;20.90;99.90
1405;DHT22;697;51.114;6.542;2023-07-29T02:56:51;20.90;99.90
1405;DHT22;697;51.114;6.542;2023-07-29T02:59:17;20.90;99.90
1405;DHT22;697;51.114;6.542;2023-07-29T03:01:45;20.90;99.90
1405;DHT22;697;51.114;6.542;2023-07-29T03:04:12;20.90;99.90
1405;DHT22;697;51.114;6.542;2023-07-29T03:06:40;20.80;99.90
1405;DHT22;697;51.114;6.542;2023-07-29T03:09:08;20.80;99.90
1405;DHT22;697;51.114;6.542;2023-07-29T03:11:35;20.80;99.90
1405;DHT22;697;51.114;6.542;2023-07-29T03:14:01;20.80;99.90
1405;DHT22;697;51.114;6.542;2023-07-29T03:16:28;20.70;99.90
1405;DHT22;697;51.114;6.542;2023-07-29T03:18:55;20.70;99.90
1405;DHT22;697;51.114;6.542;2023-07-29T03:21:23;20.70;99.90
1405;DHT22;697;51.114;6.542;2023-07-29T03:23:51;20.70;99.90
1405;DHT22;697;51.114;6.542;2023-07-29T03:26:18;20.70;99.90
1405;DHT22;697;51.114;6.542;2023-07-29T03:28:44;20.70;99.90
1405;DHT22;697;51.114;6.542;2023-07-29T03:31:11;20.70;99.90
1405;DHT22;697;51.114;6.542;2023-07-29T03:33:38;20.70;99.90
1405;DHT22;697;51.114;6.542;2023-07-29T03:36:05;20.70;99.90
1405;DHT22;697;51.114;6.542;2023-07-29T03:38:31;20.60;99.90
1405;DHT22;697;51.114;6.542;2023-07-29T03:41:02;20.60;99.90
1405;DHT22;697;51.114;6.542;2023-07-29T03:43:28;20.60;99.90
1405;DHT22;697;51.114;6.542;2023-07-29T03:45:55;20.60;99.90
1405;DHT22;697;51.114;6.542;2023-07-29T03:48:22;20.50;99.90
1405;DHT22;697;51.114;6.542;2023-07-29T03:50:49;20.50;99.90
1405;DHT22;697;51.114;6.542;2023-07-29T03:53:16;20.50;99.90
1405;DHT22;697;51.114;6.542;2023-07-29T03:55:42;20.50;99.90
1405;DHT22;697;51.114;6.542;2023-07-29T03:58:11;20.40;99.90
1405;DHT22;697;51.114;6.542;2023-07-29T04:00:38;20.40;99.90
1405;DHT22;697;51.114;6.542;2023-07-29T04:03:05;20.30;99.90
1405;DHT22;697;51.114;6.542;2023-07-29T04:05:31;20.30;99.90
1405;DHT22;697;51.114;6.542;2023-07-29T04:07:58;20.30;99.90
1405;DHT22;697;51.114;6.542;2023-07-29T04:10:25;20.20;99.90
1405;DHT22;697;51.114;6.542;2023-07-29T04:12:52;20.30;99.90
1405;DHT22;697;51.114;6.542;2023-07-29T04:15:20;20.30;99.90
1405;DHT22;697;51.114;6.542;2023-07-29T04:17:47;20.30;99.90
1405;DHT22;697;51.114;6.542;2023-07-29T04:20:13;20.20;99.90
1405;DHT22;697;51.114;6.542;2023-07-29T04:22:40;20.20;99.90
1405;DHT22;697;51.114;6.542;2023-07-29T04:25:07;20.20;99.90
1405;DHT22;697;51.114;6.542;2023-07-29T04:27:34;20.20;99.90
1405;DHT22;697;51.114;6.542;2023-07-29T04:30:01;20.20;99.90
1405;DHT22;697;51.114;6.542;2023-07-29T04:32:29;20.20;99.90
1405;DHT22;697;51.114;6.542;2023-07-29T04:34:56;20.10;99.90
1405;DHT22;697;51.114;6.542;2023-07-29T04:37:22;20.20;99.90
1405;DHT22;697;51.114;6.542;2023-07-29T04:39:49;20.10;99.90
1405;DHT22;697;51.114;6.542;2023-07-29T04:42:16;20.20;99.90
1405;DHT22;697;51.114;6.542;2023-07-29T04:44:43;20.20;99.90
1405;DHT22;697;51.114;6.542;2023-07-29T04:47:10;20.20;99.90
1405;DHT22;697;51.114;6.542;2023-07-29T04:49:38;20.20;99.90
1405;DHT22;697;51.114;6.542;2023-07-29T04:52:05;20.30;99.90
1405;DHT22;697;51.114;6.542;2023-07-29T04:54:32;20.30;99.90
1405;DHT22;697;51.114;6.542;2023-07-29T04:56:59;20.30;99.90
1405;DHT22;697;51.114;6.542;2023-07-29T04:59:26;20.30;99.90
1405;DHT22;697;51.114;6.542;2023-07-29T05:01:52;20.30;99.90
1405;DHT22;697;51.114;6.542;2023-07-29T05:04:19;20.30;99.90
1405;DHT22;697;51.114;6.542;2023-07-29T05:06:47;20.30;99.90
1405;DHT22;697;51.114;6.542;2023-07-29T05:09:15;20.20;99.90
1405;DHT22;697;51.114;6.542;2023-07-29T05:11:42;20.20;99.90
1405;DHT22;697;51.114;6.542;2023-07-29T05:14:10;20.20;99.90
1405;DHT22;697;51.114;6.542;2023-07-29T05:16:37;20.20;99.90
1405;DHT22;697;51.114;6.542;2023-07-29T05:19:04;20.20;99.90
1405;DHT22;697;51.114;6.542;2023-07-29T05:21:31;20.20;99.90
1405;DHT22;697;51.114;6.542;2023-07-29T05:24:00;20.10;99.90
1405;DHT22;697;51.114;6.542;2023-07-29T05:26:27;20.10;99.90
1405;DHT22;697;51.114;6.542;2023-07-29T05:28:53;20.00;99.90
1405;DHT22;697;51.114;6.542;2023-07-29T05:31:21;20.00;99.90
1405;DHT22;697;51.114;6.542;2023-07-29T05:33:48;20.00;99.90
1405;DHT22;697;51.114;6.542;2023-07-29T05:36:14;20.00;99.90
1405;DHT22;697;51.114;6.542;2023-07-29T05:38:41;20.00;99.90
1405;DHT22;697;51.114;6.542;2023-07-29T05:41:10;20.00;99.90
1405;DHT22;697;51.114;6.542;2023-07-29T05:43:37;20.00;99.90
1405;DHT22;697;51.114;6.542;2023-07-29T05:46:03;20.00;99.90
1405;DHT22;697;51.114;6.542;2023-07-29T05:48:30;19.90;99.90
1405;DHT22;697;51.114;6.542;2023-07-29T05:50:58;19.90;99.90
1405;DHT22;697;51.114;6.542;2023-07-29T05:53:25;19.90;99.90
1405;DHT22;697;51.114;6.542;2023-07-29T05:55:51;19.90;99.90
1405;DHT22;697;51.114;6.542;2023-07-29T05:58:20;19.90;99.90
1405;DHT22;697;51.114;6.542;2023-07-29T06:00:47;19.90;99.90
1405;DHT22;697;51.114;6.542;2023-07-29T06:03:14;19.90;99.90
1405;DHT22;697;51.114;6.542;2023-07-29T06:05:41;20.00;99.90
1405;DHT22;697;51.114;6.542;2023-07-29T06:08:08;20.00;99.90
1405;DHT22;697;51.114;6.542;2023-07-29T06:10:35;20.00;99.90
1405;DHT22;697;51.114;6.542;2023-07-29T06:13:01;20.10;99.90
1405;DHT22;697;51.114;6.542;2023-07-29T06:15:29;20.20;99.90
1405;DHT22;697;51.114;6.542;2023-07-29T06:17:56;20.30;99.90
1405;DHT22;697;51.114;6.542;2023-07-29T06:20:23;20.40;99.90
1405;DHT22;697;51.114;6.542;2023-07-29T06:22:50;20.40;99.90
1405;DHT22;697;51.114;6.542;2023-07-29T06:25:17;20.50;99.90
1405;DHT22;697;51.114;6.542;2023-07-29T06:27:44;20.50;99.90
1405;DHT22;697;51.114;6.542;2023-07-29T06:30:11;20.50;99.90
1405;DHT22;697;51.114;6.542;2023-07-29T06:32:39;20.60;99.90
1405;DHT22;697;51.114;6.542;2023-07-29T06:35:07;20.60;99.90
1405;DHT22;697;51.114;6.542;2023-07-29T06:37:34;20.70;99.90
1405;DHT22;697;51.114;6.542;2023-07-29T06:40:00;20.80;99.90
1405;DHT22;697;51.114;6.542;2023-07-29T06:42:27;20.80;99.90
1405;DHT22;697;51.114;6.542;2023-07-29T06:44:54;20.90;99.90
1405;DHT22;697;51.114;6.542;2023-07-29T06:47:20;20.90;99.90
1405;DHT22;697;51.114;6.542;2023-07-29T06:49:48;21.00;99.90
1405;DHT22;697;51.114;6.542;2023-07-29T06:52:15;21.10;99.90
1405;DHT22;697;51.114;6.542;2023-07-29T06:54:42;20.90;99.90
1405;DHT22;697;51.114;6.542;2023-07-29T06:57:09;20.90;99.90
1405;DHT22;697;51.114;6.542;2023-07-29T06:59:35;21.00;99.90
1405;DHT22;697;51.114;6.542;2023-07-29T07:02:02;21.00;99.90
1405;DHT22;697;51.114;6.542;2023-07-29T07:04:29;21.10;99.90
1405;DHT22;697;51.114;6.542;2023-07-29T07:06:58;21.10;99.90
1405;DHT22;697;51.114;6.542;2023-07-29T07:09:25;21.10;99.90
1405;DHT22;697;51.114;6.542;2023-07-29T07:11:52;21.10;99.90
1405;DHT22;697;51.114;6.542;2023-07-29T07:14:19;21.20;99.90
1405;DHT22;697;51.114;6.542;2023-07-29T07:16:46;21.00;99.90
1405;DHT22;697;51.114;6.542;2023-07-29T07:19:12;21.10;99.90
1405;DHT22;697;51.114;6.542;2023-07-29T07:21:39;21.20;99.90
1405;DHT22;697;51.114;6.542;2023-07-29T07:24:07;21.30;99.90
1405;DHT22;697;51.114;6.542;2023-07-29T07:26:34;21.40;99.50
1405;DHT22;697;51.114;6.542;2023-07-29T07:29:02;21.40;99.90
1405;DHT22;697;51.114;6.542;2023-07-29T07:31:33;21.60;99.30
1405;DHT22;697;51.114;6.542;2023-07-29T07:34:00;21.70;99.10
1405;DHT22;697;51.114;6.542;2023-07-29T07:36:30;21.80;98.80
1405;DHT22;697;51.114;6.542;2023-07-29T07:38:57;21.90;98.10
1405;DHT22;697;51.114;6.542;2023-07-29T07:41:25;21.90;95.90
1405;DHT22;697;51.114;6.542;2023-07-29T07:43:52;21.80;96.20
1405;DHT22;697;51.114;6.542;2023-07-29T07:46:19;21.80;96.60
1405;DHT22;697;51.114;6.542;2023-07-29T07:48:47;21.80;96.70
1405;DHT22;697;51.114;6.542;2023-07-29T07:51:14;21.80;96.10
1405;DHT22;697;51.114;6.542;2023-07-29T07:53:44;21.90;97.00
1405;DHT22;697;51.114;6.542;2023-07-29T07:56:14;22.00;95.90
1405;DHT22;697;51.114;6.542;2023-07-29T07:58:46;22.10;94.80
1405;DHT22;697;51.114;6.542;2023-07-29T08:01:14;22.20;94.20
1405;DHT22;697;51.114;6.542;2023-07-29T08:03:41;22.40;94.50
1405;DHT22;697;51.114;6.542;2023-07-29T08:06:08;22.40;92.90
1405;DHT22;697;51.114;6.542;2023-07-29T08:08:36;22.40;92.80
1405;DHT22;697;51.114;6.542;2023-07-29T08:11:06;22.60;93.60
1405;DHT22;697;51.114;6.542;2023-07-29T08:13:48;22.70;91.70
1405;DHT22;697;51.114;6.542;2023-07-29T08:16:17;22.90;92.70
1405;DHT22;697;51.114;6.542;2023-07-29T08:18:47;23.00;92.10
1405;DHT22;697;51.114;6.542;2023-07-29T08:21:15;23.20;92.90
1405;DHT22;697;51.114;6.542;2023-07-29T08:23:42;23.30;91.60
1405;DHT22;697;51.114;6.542;2023-07-29T08:26:08;23.30;91.00
1405;DHT22;697;51.114;6.542;2023-07-29T08:28:39;23.40;91.10
1405;DHT22;697;51.114;6.542;2023-07-29T08:31:08;23.60;91.50
1405;DHT22;697;51.114;6.542;2023-07-29T08:33:36;23.80;90.10
1405;DHT22;697;51.114;6.542;2023-07-29T08:36:03;24.10;89.30
1405;DHT22;697;51.114;6.542;2023-07-29T08:38:30;24.30;88.70
1405;DHT22;697;51.114;6.542;2023-07-29T08:41:07;24.60;88.00
1405;DHT22;697;51.114;6.542;2023-07-29T08:43:40;24.80;82.50
1405;DHT22;697;51.114;6.542;2023-07-29T08:46:12;25.10;84.70
1405;DHT22;697;51.114;6.542;2023-07-29T08:48:42;25.40;81.30
1405;DHT22;697;51.114;6.542;2023-07-29T08:51:10;25.60;80.30
1405;DHT22;697;51.114;6.542;2023-07-29T08:53:38;25.60;77.90
1405;DHT22;697;51.114;6.542;2023-07-29T08:56:06;25.40;78.30
1405;DHT22;697;51.114;6.542;2023-07-29T08:58:40;25.40;78.10
1405;DHT22;697;51.114;6.542;2023-07-29T09:01:08;25.20;77.90
1405;DHT22;697;51.114;6.542;2023-07-29T09:03:37;25.10;77.40
1405;DHT22;697;51.114;6.542;2023-07-29T09:06:05;25.10;77.00
1405;DHT22;697;51.114;6.542;2023-07-29T09:08:34;25.10;77.20
1405;DHT22;697;51.114;6.542;2023-07-29T09:11:07;25.20;76.80
1405;DHT22;697;51.114;6.542;2023-07-29T09:13:35;25.10;78.30
1405;DHT22;697;51.114;6.542;2023-07-29T09:16:05;25.20;78.80
1405;DHT22;697;51.114;6.542;2023-07-29T09:18:37;25.10;75.30
1405;DHT22;697;51.114;6.542;2023-07-29T09:21:04;24.90;76.10
1405;DHT22;697;51.114;6.542;2023-07-29T09:23:38;24.70;78.30
1405;DHT22;697;51.114;6.542;2023-07-29T09:26:06;24.70;81.60
1405;DHT22;697;51.114;6.542;2023-07-29T09:28:36;24.50;79.30
1405;DHT22;697;51.114;6.542;2023-07-29T09:31:04;24.60;82.30
1405;DHT22;697;51.114;6.542;2023-07-29T09:33:33;24.70;80.20
1405;DHT22;697;51.114;6.542;2023-07-29T09:36:09;24.80;78.00
1405;DHT22;697;51.114;6.542;2023-07-29T09:38:37;24.80;78.00
1405;DHT22;697;51.114;6.542;2023-07-29T09:41:06;24.90;78.10
1405;DHT22;697;51.114;6.542;2023-07-29T09:43:34;24.70;78.40
1405;DHT22;697;51.114;6.542;2023-07-29T09:46:07;24.60;78.30
1405;DHT22;697;51.114;6.542;2023-07-29T09:48:35;24.50;79.50
1405;DHT22;697;51.114;6.542;2023-07-29T09:51:16;24.60;77.90
1405;DHT22;697;51.114;6.542;2023-07-29T09:53:47;24.70;79.70
1405;DHT22;697;51.114;6.542;2023-07-29T09:56:16;25.10;80.30
1405;DHT22;697;51.114;6.542;2023-07-29T09:58:43;25.40;79.40
1405;DHT22;697;51.114;6.542;2023-07-29T10:01:11;25.90;75.20
1405;DHT22;697;51.114;6.542;2023-07-29T10:03:40;26.60;74.20
1405;DHT22;697;51.114;6.542;2023-07-29T10:06:09;27.10;68.80
1405;DHT22;697;51.114;6.542;2023-07-29T10:08:43;27.20;66.10
1405;DHT22;697;51.114;6.542;2023-07-29T10:11:10;27.30;62.60
1405;DHT22;697;51.114;6.542;2023-07-29T10:13:40;26.80;64.50
1405;DHT22;697;51.114;6.542;2023-07-29T10:16:07;26.50;66.40
1405;DHT22;697;51.114;6.542;2023-07-29T10:18:35;26.50;67.80
1405;DHT22;697;51.114;6.542;2023-07-29T10:21:02;26.30;67.30
1405;DHT22;697;51.114;6.542;2023-07-29T10:23:44;26.00;68.70
1405;DHT22;697;51.114;6.542;2023-07-29T10:26:14;26.10;70.80
1405;DHT22;697;51.114;6.542;2023-07-29T10:28:46;26.10;70.70
1405;DHT22;697;51.114;6.542;2023-07-29T10:31:16;26.10;68.90
1405;DHT22;697;51.114;6.542;2023-07-29T10:33:44;26.20;69.70
1405;DHT22;697;51.114;6.542;2023-07-29T10:36:12;26.00;68.20
1405;DHT22;697;51.114;6.542;2023-07-29T10:38:43;26.00;69.60
1405;DHT22;697;51.114;6.542;2023-07-29T10:41:10;26.40;69.30
1405;DHT22;697;51.114;6.542;2023-07-29T10:43:37;27.20;68.80
1405;DHT22;697;51.114;6.542;2023-07-29T10:46:16;28.10;66.70
1405;DHT22;697;51.114;6.542;2023-07-29T10:48:51;29.00;62.60
1405;DHT22;697;51.114;6.542;2023-07-29T10:51:25;29.90;56.90
1405;DHT22;697;51.114;6.542;2023-07-29T10:53:57;30.90;54.70
1405;DHT22;697;51.114;6.542;2023-07-29T10:56:28;31.70;51.50
1405;DHT22;697;51.114;6.542;2023-07-29T10:58:57;32.40;46.50
1405;DHT22;697;51.114;6.542;2023-07-29T11:01:27;32.30;46.30
1405;DHT22;697;51.114;6.542;2023-07-29T11:07:19;31.70;47.20
1405;DHT22;697;51.114;6.542;2023-07-29T11:10:00;30.90;49.00
1405;DHT22;697;51.114;6.542;2023-07-29T11:12:41;29.90;50.10
1405;DHT22;697;51.114;6.542;2023-07-29T11:15:16;29.30;52.80
1405;DHT22;697;51.114;6.542;2023-07-29T11:17:45;28.80;54.60
1405;DHT22;697;51.114;6.542;2023-07-29T11:20:13;28.70;55.90
1405;DHT22;697;51.114;6.542;2023-07-29T11:22:40;28.70;55.50
1405;DHT22;697;51.114;6.542;2023-07-29T11:25:10;28.80;54.10
1405;DHT22;697;51.114;6.542;2023-07-29T11:27:37;28.60;53.00
1405;DHT22;697;51.114;6.542;2023-07-29T11:30:06;28.70;54.60
1405;DHT22;697;51.114;6.542;2023-07-29T11:32:34;29.20;53.60
1405;DHT22;697;51.114;6.542;2023-07-29T11:35:02;29.80;52.10
1405;DHT22;697;51.114;6.542;2023-07-29T11:37:29;30.30;50.80
1405;DHT22;697;51.114;6.542;2023-07-29T11:39:56;30.90;49.20
1405;DHT22;697;51.114;6.542;2023-07-29T11:42:26;31.80;47.90
1405;DHT22;697;51.114;6.542;2023-07-29T11:44:55;32.40;45.20
1405;DHT22;697;51.114;6.542;2023-07-29T11:47:22;32.30;44.90
1405;DHT22;697;51.114;6.542;2023-07-29T11:49:49;32.40;46.30
1405;DHT22;697;51.114;6.542;2023-07-29T11:52:16;32.70;44.60
1405;DHT22;697;51.114;6.542;2023-07-29T11:54:46;33.20;43.20
1405;DHT22;697;51.114;6.542;2023-07-29T11:57:13;33.50;43.30
1405;DHT22;697;51.114;6.542;2023-07-29T11:59:42;34.20;42.40
1405;DHT22;697;51.114;6.542;2023-07-29T12:02:11;34.90;38.60
1405;DHT22;697;51.114;6.542;2023-07-29T12:04:39;35.70;37.20
1405;DHT22;697;51.114;6.542;2023-07-29T12:07:06;36.70;36.90
1405;DHT22;697;51.114;6.542;2023-07-29T12:09:33;37.30;34.10
1405;DHT22;697;51.114;6.542;2023-07-29T12:12:00;37.40;33.50
1405;DHT22;697;51.114;6.542;2023-07-29T12:14:28;37.30;34.30
1405;DHT22;697;51.114;6.542;2023-07-29T12:16:59;37.30;31.70
1405;DHT22;697;51.114;6.542;2023-07-29T12:19:32;37.40;32.30
1405;DHT22;697;51.114;6.542;2023-07-29T12:21:59;37.50;32.30
1405;DHT22;697;51.114;6.542;2023-07-29T12:24:26;38.10;32.20
1405;DHT22;697;51.114;6.542;2023-07-29T12:26:53;38.30;30.90
1405;DHT22;697;51.114;6.542;2023-07-29T12:29:20;38.00;31.00
1405;DHT22;697;51.114;6.542;2023-07-29T12:31:47;37.60;30.50
1405;DHT22;697;51.114;6.542;2023-07-29T12:34:19;37.40;30.80
1405;DHT22;697;51.114;6.542;2023-07-29T12:36:47;36.60;32.70
1405;DHT22;697;51.114;6.542;2023-07-29T12:39:21;35.80;34.10
1405;DHT22;697;51.114;6.542;2023-07-29T12:41:50;34.70;35.70
1405;DHT22;697;51.114;6.542;2023-07-29T12:44:17;33.70;37.80
1405;DHT22;697;51.114;6.542;2023-07-29T12:46:44;33.00;40.40
1405;DHT22;697;51.114;6.542;2023-07-29T12:49:12;32.40;41.40
1405;DHT22;697;51.114;6.542;2023-07-29T12:51:40;31.90;42.40
1405;DHT22;697;51.114;6.542;2023-07-29T12:54:07;31.40;44.10
1405;DHT22;697;51.114;6.542;2023-07-29T12:56:34;31.00;45.30
1405;DHT22;697;51.114;6.542;2023-07-29T12:59:01;30.50;45.60
1405;DHT22;697;51.114;6.542;2023-07-29T13:01:29;30.10;46.50
1405;DHT22;697;51.114;6.542;2023-07-29T13:03:56;29.60;48.10
1405;DHT22;697;51.114;6.542;2023-07-29T13:06:23;29.10;49.50
1405;DHT22;697;51.114;6.542;2023-07-29T13:08:51;28.70;51.10
1405;DHT22;697;51.114;6.542;2023-07-29T13:11:18;28.30;52.80
1405;DHT22;697;51.114;6.542;2023-07-29T13:13:44;27.90;54.90
1405;DHT22;697;51.114;6.542;2023-07-29T13:16:12;27.50;56.70
1405;DHT22;697;51.114;6.542;2023-07-29T13:18:39;26.90;58.50
1405;DHT22;697;51.114;6.542;2023-07-29T13:21:06;26.60;61.10
1405;DHT22;697;51.114;6.542;2023-07-29T13:23:33;26.40;62.70
1405;DHT22;697;51.114;6.542;2023-07-29T13:26:01;26.20;64.50
1405;DHT22;697;51.114;6.542;2023-07-29T13:28:28;26.10;65.10
1405;DHT22;697;51.114;6.542;2023-07-29T13:30:55;26.10;66.30
1405;DHT22;697;51.114;6.542;2023-07-29T13:33:21;26.10;67.10
1405;DHT22;697;51.114;6.542;2023-07-29T13:35:48;26.10;66.70
1405;DHT22;697;51.114;6.542;2023-07-29T13:38:15;26.00;68.10
1405;DHT22;697;51.114;6.542;2023-07-29T13:40:42;25.90;68.20
1405;DHT22;697;51.114;6.542;2023-07-29T13:43:11;25.60;69.90
1405;DHT22;697;51.114;6.542;2023-07-29T13:45:37;25.10;71.70
1405;DHT22;697;51.114;6.542;2023-07-29T13:48:04;24.60;74.00
1405;DHT22;697;51.114;6.542;2023-07-29T13:50:31;24.30;78.70
1405;DHT22;697;51.114;6.542;2023-07-29T13:52:58;24.00;82.60
1405;DHT22;697;51.114;6.542;2023-07-29T13:55:25;23.80;84.60
1405;DHT22;697;51.114;6.542;2023-07-29T13:57:52;23.70;85.00
1405;DHT22;697;51.114;6.542;2023-07-29T14:00:21;23.60;86.40
1405;DHT22;697;51.114;6.542;2023-07-29T14:02:47;23.60;89.10
1405;DHT22;697;51.114;6.542;2023-07-29T14:05:14;24.10;91.30
1405;DHT22;697;51.114;6.542;2023-07-29T14:07:42;25.00;90.40
1405;DHT22;697;51.114;6.542;2023-07-29T14:10:09;26.00;86.00
1405;DHT22;697;51.114;6.542;2023-07-29T14:12:36;27.00;83.20
1405;DHT22;697;51.114;6.542;2023-07-29T14:15:04;27.70;75.60
1405;DHT22;697;51.114;6.542;2023-07-29T14:17:33;28.40;72.50
1405;DHT22;697;51.114;6.542;2023-07-29T14:19:59;29.40;72.80
1405;DHT22;697;51.114;6.542;2023-07-29T14:22:26;30.30;62.30
1405;DHT22;697;51.114;6.542;2023-07-29T14:24:53;30.50;61.60
1405;DHT22;697;51.114;6.542;2023-07-29T14:27:19;30.80;59.80
1405;DHT22;697;51.114;6.542;2023-07-29T14:29:46;30.80;58.10
1405;DHT22;697;51.114;6.542;2023-07-29T14:32:13;30.60;58.10
1405;DHT22;697;51.114;6.542;2023-07-29T14:34:41;30.30;59.30
1405;DHT22;697;51.114;6.542;2023-07-29T14:37:08;29.90;60.80
1405;DHT22;697;51.114;6.542;2023-07-29T14:39:35;29.70;63.10
1405;DHT22;697;51.114;6.542;2023-07-29T14:42:02;29.90;62.40
1405;DHT22;697;51.114;6.542;2023-07-29T14:44:29;30.00;59.90
1405;DHT22;697;51.114;6.542;2023-07-29T14:46:55;30.30;61.30
1405;DHT22;697;51.114;6.542;2023-07-29T14:49:22;31.20;58.50
1405;DHT22;697;51.114;6.542;2023-07-29T14:51:50;32.60;56.70
1405;DHT22;697;51.114;6.542;2023-07-29T14:54:17;34.00;51.90
1405;DHT22;697;51.114;6.542;2023-07-29T14:56:44;35.20;45.90
1405;DHT22;697;51.114;6.542;2023-07-29T14:59:11;36.00;42.80
1405;DHT22;697;51.114;6.542;2023-07-29T15:01:37;36.20;42.40
1405;DHT22;697;51.114;6.542;2023-07-29T15:04:04;35.90;42.30
1405;DHT22;697;51.114;6.542;2023-07-29T15:06:31;35.40;43.00
1405;DHT22;697;51.114;6.542;2023-07-29T15:08:59;34.60;43.50
1405;DHT22;697;51.114;6.542;2023-07-29T15:11:26;33.90;44.80
1405;DHT22;697;51.114;6.542;2023-07-29T15:13:55;33.40;46.80
1405;DHT22;697;51.114;6.542;2023-07-29T15:16:23;32.90;48.20
1405;DHT22;697;51.114;6.542;2023-07-29T15:18:50;32.70;47.00
1405;DHT22;697;51.114;6.542;2023-07-29T15:21:17;33.50;47.20
1405;DHT22;697;51.114;6.542;2023-07-29T15:23:44;34.80;45.60
1405;DHT22;697;51.114;6.542;2023-07-29T15:26:13;36.20;42.70
1405;DHT22;697;51.114;6.542;2023-07-29T15:28:39;37.60;38.80
1405;DHT22;697;51.114;6.542;2023-07-29T15:31:06;38.80;35.50
1405;DHT22;697;51.114;6.542;2023-07-29T15:33:33;39.80;33.30
1405;DHT22;697;51.114;6.542;2023-07-29T15:36:00;40.40;31.10
1405;DHT22;697;51.114;6.542;2023-07-29T15:38:27;40.80;29.90
1405;DHT22;697;51.114;6.542;2023-07-29T15:40:54;41.00;29.60
1405;DHT22;697;51.114;6.542;2023-07-29T15:43:22;41.30;29.50
1405;DHT22;697;51.114;6.542;2023-07-29T15:45:49;41.00;29.00
1405;DHT22;697;51.114;6.542;2023-07-29T15:48:16;41.00;28.60
1405;DHT22;697;51.114;6.542;2023-07-29T15:50:43;41.20;28.40
1405;DHT22;697;51.114;6.542;2023-07-29T15:53:10;41.30;28.10
1405;DHT22;697;51.114;6.542;2023-07-29T15:55:36;40.50;27.60
1405;DHT22;697;51.114;6.542;2023-07-29T15:58:04;39.40;29.20
1405;DHT22;697;51.114;6.542;2023-07-29T16:00:32;37.80;31.10
1405;DHT22;697;51.114;6.542;2023-07-29T16:02:59;36.40;33.70
1405;DHT22;697;51.114;6.542;2023-07-29T16:05:26;35.30;36.50
1405;DHT22;697;51.114;6.542;2023-07-29T16:07:53;34.60;39.00
1405;DHT22;697;51.114;6.542;2023-07-29T16:10:21;34.70;38.60
1405;DHT22;697;51.114;6.542;2023-07-29T16:12:48;35.00;39.20
1405;DHT22;697;51.114;6.542;2023-07-29T16:15:15;34.90;37.50
1405;DHT22;697;51.114;6.542;2023-07-29T16:17:43;34.50;39.00
1405;DHT22;697;51.114;6.542;2023-07-29T16:20:12;34.50;38.90
1405;DHT22;697;51.114;6.542;2023-07-29T16:22:39;34.60;39.40
1405;DHT22;697;51.114;6.542;2023-07-29T16:25:06;34.40;38.90